Time;durP1;ratioP1;P1;durP2;ratioP2;P2;SDS_P1;SDS_P2;PMS_P1;PMS_P2;Temp;Humidity;BMP_temperature;BMP_pressure;BME280_temperature;BME280_humidity;BME280_pressure;Samples;Min_cycle;Max_cycle;Signal;HPM_P1;HPM_P2
2021/10/25 00:01:34;;;;;;;11.50;10.50;;;3.10;99.90;;;3.89;86.02;98524.66;5219052;28;20226;-60
2021/10/25 00:04:09;;;;;;;12.10;10.10;;;3.00;99.90;;;3.85;86.23;98522.63;5225131;28;20201;-58
2021/10/25 00:06:42;;;;;;;11.70;10.67;;;3.00;99.90;;;3.85;86.36;98530.19;5217582;28;20212;-60
2021/10/25 00:09:16;;;;;;;11.47;10.33;;;3.00;99.90;;;3.79;86.29;98533.03;5223220;28;20211;-60
2021/10/25 00:11:49;;;;;;;11.03;10.03;;;2.90;99.90;;;3.78;86.59;98527.84;5223875;28;20319;-60
2021/10/25 00:14:22;;;;;;;12.13;11.03;;;2.90;99.90;;;3.79;86.57;98537.22;5220535;28;20225;-60
2021/10/25 00:16:55;;;;;;;11.07;10.17;;;3.00;99.90;;;3.82;86.17;98534.97;5220597;28;20275;-60
2021/10/25 00:19:30;;;;;;;12.07;10.97;;;2.90;99.90;;;3.82;86.52;98537.50;5223427;28;20223;-61
2021/10/25 00:22:04;;;;;;;11.47;10.37;;;2.90;99.90;;;3.76;86.60;98536.94;5223543;28;20230;-60
2021/10/25 00:24:37;;;;;;;10.33;9.40;;;2.90;99.90;;;3.73;86.66;98541.69;5224546;28;20190;-59
2021/10/25 00:27:10;;;;;;;10.87;9.97;;;2.90;99.90;;;3.72;86.01;98534.84;5221083;28;20625;-60
2021/10/25 00:29:44;;;;;;;12.00;10.90;;;2.90;99.90;;;3.75;86.10;98540.19;5223077;28;20211;-61
2021/10/25 00:32:17;;;;;;;10.70;9.70;;;2.80;99.90;;;3.74;86.83;98538.41;5222251;28;20215;-60
2021/10/25 00:34:51;;;;;;;11.73;10.63;;;2.90;99.90;;;3.69;87.03;98540.53;5224121;28;20197;-60
2021/10/25 00:37:24;;;;;;;11.33;10.33;;;2.90;99.90;;;3.77;86.42;98543.75;5222688;28;20232;-60
2021/10/25 00:39:57;;;;;;;11.30;10.20;;;2.90;99.90;;;3.74;86.74;98535.88;5223222;28;20248;-59
2021/10/25 00:42:30;;;;;;;10.93;9.93;;;2.80;99.90;;;3.72;86.05;98542.41;5222940;28;20231;-60
2021/10/25 00:45:05;;;;;;;11.40;10.33;;;2.80;99.90;;;3.77;86.24;98539.59;5224020;28;20292;-60
2021/10/25 00:47:38;;;;;;;11.70;10.60;;;2.80;99.90;;;3.64;86.61;98536.66;5221372;28;20203;-60
2021/10/25 00:50:13;;;;;;;11.43;10.33;;;2.80;99.90;;;3.62;86.75;98540.69;5221642;28;20196;-59
2021/10/25 00:52:46;;;;;;;11.13;10.20;;;2.80;99.90;;;3.48;86.27;98543.53;5223660;28;20227;-59
2021/10/25 00:55:20;;;;;;;11.70;10.63;;;2.60;99.90;;;3.49;86.26;98542.78;5221044;28;20291;-60
2021/10/25 00:57:53;;;;;;;11.87;10.70;;;2.60;99.90;;;3.46;86.52;98545.91;5220801;28;20720;-60
2021/10/25 01:00:28;;;;;;;12.47;11.27;;;2.60;99.90;;;3.42;86.28;98543.84;5223242;28;20670;-61
2021/10/25 01:03:01;;;;;;;12.47;11.33;;;2.60;99.90;;;3.42;86.92;98548.88;5222558;28;20238;-61
2021/10/25 01:05:36;;;;;;;12.37;11.30;;;2.60;99.90;;;3.47;86.67;98545.16;5225341;28;20574;-60
2021/10/25 01:08:09;;;;;;;10.60;9.60;;;2.60;99.90;;;3.50;86.86;98547.09;5225293;28;20719;-60
2021/10/25 01:10:43;;;;;;;11.33;10.27;;;2.70;99.90;;;3.46;87.09;98538.31;5220698;28;20193;-60
2021/10/25 01:13:16;;;;;;;11.97;10.87;;;2.70;99.90;;;3.47;87.03;98542.66;5221446;28;20211;-60
2021/10/25 01:15:49;;;;;;;10.90;9.90;;;2.70;99.90;;;3.43;87.21;98532.97;5223601;28;20197;-60
2021/10/25 01:18:22;;;;;;;11.43;10.33;;;2.50;99.90;;;3.38;86.06;98534.19;5225626;28;20219;-61
2021/10/25 01:20:57;;;;;;;12.27;11.17;;;2.50;99.90;;;3.39;86.83;98528.38;5226135;28;20732;-60
2021/10/25 01:23:30;;;;;;;11.03;10.07;;;2.50;99.90;;;3.38;86.33;98531.66;5226780;28;20297;-60
2021/10/25 01:26:03;;;;;;;10.83;9.83;;;2.50;99.90;;;3.30;86.37;98535.97;5227896;28;20616;-60
2021/10/25 01:28:37;;;;;;;11.23;10.07;;;2.40;99.90;;;3.27;86.62;98524.69;5226633;28;20200;-60
2021/10/25 01:31:11;;;;;;;10.87;9.77;;;2.40;99.90;;;3.23;86.22;98531.06;5226944;28;20620;-61
2021/10/25 01:33:45;;;;;;;11.23;10.03;;;2.40;99.90;;;3.30;86.59;98530.03;5223105;28;20198;-60
2021/10/25 01:36:21;;;;;;;10.80;9.80;;;2.40;99.90;;;3.21;86.99;98522.47;5222796;28;20660;-60
2021/10/25 01:38:55;;;;;;;10.73;9.67;;;2.40;99.90;;;3.16;86.81;98528.72;5224966;28;20209;-60
2021/10/25 01:41:28;;;;;;;11.83;10.77;;;2.40;99.90;;;3.12;87.11;98527.53;5226165;28;20221;-60
2021/10/25 01:44:01;;;;;;;10.80;9.80;;;2.40;99.90;;;3.13;86.36;98526.78;5224788;28;20210;-58
2021/10/25 01:46:34;;;;;;;10.80;9.80;;;2.30;99.90;;;3.15;86.83;98524.41;5224994;28;20874;-60
2021/10/25 01:49:07;;;;;;;11.87;10.70;;;2.30;99.90;;;3.08;87.81;98517.88;5225062;28;20200;-58
2021/10/25 01:51:41;;;;;;;11.40;10.30;;;2.40;99.90;;;3.11;88.12;98524.84;5224837;28;20236;-60
2021/10/25 01:54:14;;;;;;;12.60;11.30;;;2.40;99.90;;;3.14;88.46;98531.06;5226938;28;20200;-60
2021/10/25 01:56:48;;;;;;;11.90;10.90;;;2.40;99.90;;;3.17;87.79;98525.44;5225117;28;20196;-58
2021/10/25 01:59:21;;;;;;;10.93;9.83;;;2.40;99.90;;;3.15;87.51;98527.81;5225281;28;20220;-60
2021/10/25 02:01:55;;;;;;;13.20;11.13;;;2.40;99.90;;;3.15;87.25;98519.38;5226619;28;20346;-56
2021/10/25 02:04:29;;;;;;;12.53;11.43;;;2.40;99.90;;;3.17;88.11;98521.25;5226059;28;20676;-58
2021/10/25 02:07:03;;;;;;;12.30;11.10;;;2.40;99.90;;;3.21;89.03;98516.53;5223917;28;20213;-59
2021/10/25 02:09:36;;;;;;;11.90;10.70;;;2.50;99.90;;;3.25;89.12;98516.06;5224505;28;20189;-55
2021/10/25 02:12:10;;;;;;;11.07;9.93;;;2.50;99.90;;;3.25;87.92;98523.66;5226080;28;20237;-55
2021/10/25 02:14:43;;;;;;;10.93;9.83;;;2.40;99.90;;;3.25;87.87;98523.66;5225415;28;20932;-55
2021/10/25 02:17:17;;;;;;;11.63;10.53;;;2.40;99.90;;;3.21;88.20;98516.53;5225743;28;20788;-56
2021/10/25 02:19:50;;;;;;;11.50;10.20;;;2.40;99.90;;;3.20;88.09;98513.09;5226439;28;20683;-57
2021/10/25 02:22:25;;;;;;;12.27;11.13;;;2.40;99.90;;;3.26;88.35;98505.22;5226193;28;20223;-58
2021/10/25 02:24:58;;;;;;;13.50;12.20;;;2.60;99.90;;;3.30;88.62;98513.25;5226445;28;20203;-58
2021/10/25 02:27:31;;;;;;;13.17;11.77;;;2.60;99.90;;;3.34;89.07;98509.38;5224211;28;20288;-58
2021/10/25 02:30:05;;;;;;;11.53;10.37;;;2.60;99.90;;;3.35;88.59;98501.06;5225976;28;20193;-57
2021/10/25 02:32:38;;;;;;;11.37;10.37;;;2.60;99.90;;;3.33;88.92;98495.84;5224620;28;20227;-58
2021/10/25 02:35:11;;;;;;;11.73;10.53;;;2.60;99.90;;;3.31;88.73;98499.84;5225374;28;20597;-59
2021/10/25 02:37:46;;;;;;;11.53;10.53;;;2.50;99.90;;;3.36;88.77;98500.31;5226052;28;20303;-54
2021/10/25 02:40:19;;;;;;;11.97;10.97;;;2.60;99.90;;;3.40;88.82;98494.78;5225379;28;20218;-57
2021/10/25 02:42:52;;;;;;;12.00;10.90;;;2.60;99.90;;;3.34;88.80;98504.31;5223968;28;20907;-54
2021/10/25 02:45:27;;;;;;;13.17;11.97;;;2.50;99.90;;;3.30;88.06;98497.19;5221723;28;20204;-56
2021/10/25 02:48:00;;;;;;;13.53;12.13;;;2.50;99.90;;;3.25;88.05;98499.28;5225444;28;20204;-58
2021/10/25 02:50:34;;;;;;;13.03;11.73;;;2.40;99.90;;;3.20;88.85;98497.06;5225641;28;20291;-55
2021/10/25 02:53:09;;;;;;;12.90;11.63;;;2.40;99.90;;;3.20;89.27;98492.00;5225489;28;20585;-56
2021/10/25 02:55:42;;;;;;;13.40;12.20;;;2.40;99.90;;;3.23;89.59;98490.66;5225405;28;20928;-56
2021/10/25 02:58:16;;;;;;;13.07;11.87;;;2.50;99.90;;;3.22;89.56;98498.09;5225779;28;20216;-56
2021/10/25 03:00:49;;;;;;;13.47;12.17;;;2.50;99.90;;;3.23;88.91;98494.81;5223772;28;20216;-54
2021/10/25 03:03:23;;;;;;;13.57;12.30;;;2.50;99.90;;;3.19;89.32;98492.75;5224190;28;20657;-57
2021/10/25 03:05:57;;;;;;;14.50;13.10;;;2.40;99.90;;;3.10;89.81;98492.78;5222692;28;20276;-57
2021/10/25 03:08:31;;;;;;;13.53;12.13;;;2.30;99.90;;;3.00;89.21;98485.94;5223574;28;20275;-56
2021/10/25 03:11:04;;;;;;;14.70;13.27;;;2.30;99.90;;;2.99;89.54;98481.63;5225780;28;20219;-56
2021/10/25 03:13:37;;;;;;;14.70;13.40;;;2.30;99.90;;;2.96;90.06;98488.03;5224471;28;20661;-54
2021/10/25 03:16:11;;;;;;;13.93;12.63;;;2.30;99.90;;;2.98;89.86;98482.41;5224883;28;20194;-58
2021/10/25 03:18:44;;;;;;;14.63;13.13;;;2.30;99.90;;;3.03;89.85;98481.19;5224523;28;20263;-54
2021/10/25 03:21:17;;;;;;;13.33;12.03;;;2.30;99.90;;;2.98;90.62;98478.97;5224333;28;20221;-56
2021/10/25 03:23:52;;;;;;;14.97;13.60;;;2.30;99.90;;;3.00;89.74;98480.00;5223322;28;20193;-56
2021/10/25 03:26:26;;;;;;;14.60;13.20;;;2.30;99.90;;;2.96;89.43;98488.03;5223570;28;20293;-57
2021/10/25 03:28:59;;;;;;;14.73;13.27;;;2.20;99.90;;;2.90;89.37;98483.28;5223669;28;20292;-56
2021/10/25 03:31:32;;;;;;;14.43;13.00;;;2.20;99.90;;;2.84;90.42;98490.28;5222788;28;20220;-55
2021/10/25 03:34:06;;;;;;;14.80;13.40;;;2.10;99.90;;;2.85;90.51;98489.50;5223691;28;20203;-57
2021/10/25 03:36:42;;;;;;;15.10;13.47;;;2.10;99.90;;;2.85;90.56;98490.41;5222833;28;20243;-54
2021/10/25 03:39:19;;;;;;;14.37;12.93;;;2.20;99.90;;;2.89;90.40;98486.53;5222563;28;20197;-53
2021/10/25 03:41:55;;;;;;;13.80;12.50;;;2.20;99.90;;;2.87;90.75;98477.94;5225047;28;20691;-58
2021/10/25 03:44:32;;;;;;;14.47;13.23;;;2.20;99.90;;;2.89;90.97;98476.44;5221627;28;20199;-55
2021/10/25 03:47:08;;;;;;;15.30;13.70;;;2.20;99.90;;;2.91;91.43;98485.94;5224791;28;20636;-57
2021/10/25 03:49:46;;;;;;;15.07;13.57;;;2.30;99.90;;;2.94;91.59;98483.72;5220249;28;20660;-54
2021/10/25 03:52:25;;;;;;;15.03;13.63;;;2.30;99.90;;;2.98;91.93;98476.47;5223977;28;20228;-54
2021/10/25 03:55:06;;;;;;;14.23;12.93;;;2.30;99.90;;;3.00;91.17;98475.84;5222019;28;20229;-55
2021/10/25 04:00:49;;;;;;;16.70;14.90;;;2.40;99.90;;;3.03;91.43;98478.66;5220500;28;20226;-57
2021/10/25 04:03:43;;;;;;;15.40;13.90;;;2.40;99.90;;;3.04;91.03;98480.44;5221433;28;20721;-56
2021/10/25 04:26:18;;;;;;;15.53;14.10;;;2.30;99.90;;;2.98;90.91;98482.41;5220966;28;20205;-60
2021/10/25 04:28:52;;;;;;;15.10;13.70;;;2.30;99.90;;;2.97;91.53;98479.69;5219013;28;20209;-57
2021/10/25 04:31:26;;;;;;;15.97;14.37;;;2.20;99.90;;;2.99;91.39;98476.59;5221492;28;20224;-55
2021/10/25 04:33:59;;;;;;;14.07;12.87;;;2.30;99.90;;;2.98;91.11;98472.28;5221861;28;20233;-54
2021/10/25 04:36:32;;;;;;;14.17;12.87;;;2.20;99.90;;;2.97;90.95;98479.69;5222816;28;20226;-58
2021/10/25 04:39:09;;;;;;;13.70;12.30;;;2.30;99.90;;;2.98;90.76;98482.41;5221725;28;20208;-57
2021/10/25 04:41:42;;;;;;;14.63;13.17;;;2.30;99.90;;;3.01;90.14;98485.22;5221263;28;20319;-57
2021/10/25 04:44:16;;;;;;;15.43;13.93;;;2.30;99.90;;;3.04;90.64;98477.94;5220169;28;20193;-57
2021/10/25 04:46:49;;;;;;;14.83;13.43;;;2.30;99.90;;;3.02;89.97;98474.34;5224036;28;20721;-57
2021/10/25 04:49:22;;;;;;;14.87;13.40;;;2.30;99.90;;;3.03;89.78;98483.69;5220067;28;20744;-57
2021/10/25 04:51:55;;;;;;;15.20;13.60;;;2.30;99.90;;;3.00;90.07;98480.88;5221265;28;20297;-55
2021/10/25 04:54:28;;;;;;;15.00;13.50;;;2.30;99.90;;;2.97;89.38;98479.69;5222473;28;20292;-60
2021/10/25 04:57:02;;;;;;;16.57;14.53;;;2.20;99.90;;;2.94;89.31;98486.22;5222821;28;20205;-55
2021/10/25 04:59:37;;;;;;;15.17;13.57;;;2.20;99.90;;;2.90;90.02;98488.34;5223567;28;20233;-55
2021/10/25 05:02:10;;;;;;;15.80;14.23;;;2.20;99.90;;;2.92;90.68;98481.81;5221073;28;20224;-55
2021/10/25 05:04:44;;;;;;;16.67;15.00;;;2.20;99.90;;;2.92;90.61;98479.28;5222507;28;20546;-57
2021/10/25 05:07:17;;;;;;;14.23;12.93;;;2.20;99.90;;;2.96;89.86;98475.41;5219165;28;20586;-55
2021/10/25 05:09:50;;;;;;;15.37;13.97;;;2.20;99.90;;;2.99;89.46;98476.59;5218323;28;20292;-57
2021/10/25 05:12:23;;;;;;;15.83;14.33;;;2.20;99.90;;;3.02;89.95;98478.53;5218031;28;20214;-56
2021/10/25 05:14:57;;;;;;;16.10;14.50;;;2.30;99.90;;;3.01;90.01;98471.69;5222430;28;20587;-55
2021/10/25 05:17:31;;;;;;;16.10;14.63;;;2.30;99.90;;;2.96;91.19;98463.69;5216671;28;20209;-53
2021/10/25 05:20:05;;;;;;;14.90;13.50;;;2.30;99.90;;;3.00;90.23;98468.25;5223573;28;20226;-54
2021/10/25 05:22:38;;;;;;;14.53;13.13;;;2.30;99.90;;;3.02;90.98;98463.38;5217758;28;20219;-57
2021/10/25 05:25:13;;;;;;;14.97;13.60;;;2.30;99.90;;;3.03;90.27;98473.59;5216093;28;20203;-57
2021/10/25 05:27:46;;;;;;;14.30;12.93;;;2.30;99.90;;;2.99;90.02;98474.06;5220502;28;20203;-55
2021/10/25 05:30:21;;;;;;;14.67;13.37;;;2.30;99.90;;;3.03;89.56;98468.53;5223031;28;20591;-57
2021/10/25 05:32:54;;;;;;;13.83;12.53;;;2.20;99.90;;;3.01;89.08;98462.47;5219678;28;20223;-56
2021/10/25 05:35:27;;;;;;;15.63;13.90;;;2.20;99.90;;;2.99;89.23;98447.94;5218868;28;20200;-57
2021/10/25 05:38:00;;;;;;;13.97;12.57;;;2.20;99.90;;;2.96;90.09;98452.69;5218041;28;20209;-57
2021/10/25 05:40:33;;;;;;;14.53;13.23;;;2.20;99.90;;;3.02;90.09;98451.63;5222535;28;20244;-57
2021/10/25 05:43:07;;;;;;;14.43;13.13;;;2.30;99.90;;;3.05;90.16;98464.53;5215999;28;20248;-56
2021/10/25 05:45:41;;;;;;;15.40;13.97;;;2.30;99.90;;;3.05;90.50;98462.03;5222383;28;20584;-54
2021/10/25 05:48:14;;;;;;;14.33;13.03;;;2.30;99.90;;;3.03;89.26;98450.88;5219338;28;20197;-58
2021/10/25 05:50:47;;;;;;;14.67;13.17;;;2.20;99.90;;;3.04;89.62;98459.38;5219854;28;20200;-57
2021/10/25 05:53:21;;;;;;;15.80;14.27;;;2.20;99.90;;;3.10;88.57;98454.91;5215329;28;20290;-59
2021/10/25 05:55:54;;;;;;;14.77;13.37;;;2.20;99.90;;;3.03;89.75;98453.41;5213058;28;20216;-57
2021/10/25 05:58:27;;;;;;;13.77;12.43;;;2.30;99.90;;;3.02;88.99;98456.69;5219133;28;20295;-54
2021/10/25 06:01:05;;;;;;;14.57;13.23;;;2.20;99.90;;;2.97;88.60;98450.28;5218091;28;20389;-53
2021/10/25 06:03:41;;;;;;;15.27;13.77;;;2.20;99.90;;;2.96;88.97;98466.19;5229564;28;20198;-55
2021/10/25 06:06:15;;;;;;;16.33;14.83;;;2.20;99.90;;;2.97;89.83;98470.50;5221097;28;20656;-55
2021/10/25 06:08:48;;;;;;;16.50;14.83;;;2.30;99.90;;;3.00;90.28;98463.22;5222035;28;20210;-56
2021/10/25 06:11:21;;;;;;;15.37;13.77;;;2.30;99.90;;;2.96;89.76;98468.72;5220840;28;20221;-52
2021/10/25 06:13:59;;;;;;;14.80;13.37;;;2.30;99.90;;;3.00;89.42;98470.78;5220859;28;20215;-52
2021/10/25 06:16:38;;;;;;;15.23;13.73;;;2.30;99.90;;;3.00;88.54;98463.22;5221528;28;20233;-55
2021/10/25 06:19:13;;;;;;;15.47;13.97;;;2.20;99.90;;;2.92;88.94;98461.63;5221801;28;20288;-55
2021/10/25 06:21:46;;;;;;;15.23;13.77;;;2.20;99.90;;;2.97;89.26;98457.88;5218743;28;20249;-53
2021/10/25 06:24:20;;;;;;;15.50;13.93;;;2.20;99.90;;;2.96;88.05;98463.69;5222297;28;20217;-52
2021/10/25 06:26:53;;;;;;;14.07;12.73;;;2.20;99.90;;;3.00;88.20;98468.25;5222059;28;20230;-56
2021/10/25 06:29:26;;;;;;;16.20;14.27;;;2.20;99.90;;;3.09;89.09;98471.69;5221679;28;20194;-58
2021/10/25 06:32:01;;;;;;;16.17;14.47;;;2.30;99.90;;;3.19;88.65;98472.56;5218976;28;20227;-55
2021/10/25 06:34:38;;;;;;;15.47;13.90;;;2.40;99.90;;;3.25;88.35;98473.13;5222748;28;20207;-52
2021/10/25 06:37:11;;;;;;;15.77;14.10;;;2.40;99.90;;;3.21;88.18;98468.56;5218577;28;20304;-55
2021/10/25 06:39:53;;;;;;;14.83;13.47;;;2.40;99.90;;;3.25;88.55;98468.09;5217687;28;20206;-54
2021/10/25 06:42:26;;;;;;;15.60;13.87;;;2.50;99.90;;;3.43;87.07;98468.91;5221069;28;20787;-56
2021/10/25 06:45:00;;;;;;;15.80;14.23;;;2.60;99.90;;;3.45;87.93;98473.38;5217876;28;20209;-52
2021/10/25 06:47:35;;;;;;;16.23;14.57;;;2.70;99.90;;;3.47;87.52;98471.91;5214240;28;20209;-56
2021/10/25 06:50:09;;;;;;;15.73;14.13;;;2.70;99.90;;;3.43;87.62;98486.59;5217674;28;20589;-52
2021/10/25 06:52:43;;;;;;;15.20;13.70;;;2.60;99.90;;;3.47;88.09;98481.13;5217651;28;20232;-54
2021/10/25 06:55:16;;;;;;;15.93;14.33;;;2.60;99.90;;;3.46;87.39;98486.91;5220640;28;20198;-53
2021/10/25 06:57:49;;;;;;;16.83;15.10;;;2.60;99.90;;;3.55;87.11;98486.16;5217767;28;20218;-55
2021/10/25 07:00:22;;;;;;;16.90;15.30;;;2.70;99.90;;;3.65;86.91;98487.88;5221854;28;20495;-53
2021/10/25 07:02:57;;;;;;;15.90;14.30;;;2.80;99.90;;;3.75;86.80;98493.06;5220063;28;20232;-53
2021/10/25 07:05:33;;;;;;;15.50;14.00;;;2.90;99.90;;;3.96;86.03;98501.75;5220593;28;20207;-54
2021/10/25 07:08:06;;;;;;;15.53;14.03;;;3.10;99.90;;;3.98;85.52;98500.25;5221371;28;20285;-55
2021/10/25 07:10:40;;;;;;;15.27;13.87;;;3.10;99.90;;;4.12;86.12;98500.63;5222611;28;20205;-52
2021/10/25 07:13:22;;;;;;;16.03;14.33;;;3.30;99.90;;;4.45;85.06;98493.59;5217322;28;20197;-54
2021/10/25 07:16:01;;;;;;;15.23;13.73;;;3.50;99.90;;;4.41;84.77;98488.13;5221561;28;20690;-56
2021/10/25 07:18:39;;;;;;;16.03;14.43;;;3.60;99.90;;;4.48;84.85;98498.91;5219297;28;20256;-55
2021/10/25 07:21:33;;;;;;;15.20;13.73;;;3.60;99.90;;;4.58;85.24;98499.75;5217280;28;20311;-56
2021/10/25 08:01:57;;;;;;;16.27;14.17;;;6.30;99.90;;;7.34;75.32;98487.72;5225776;28;20237;-59
2021/10/25 08:07:33;;;;;;;15.40;13.90;;;6.70;99.90;;;7.76;74.51;98486.78;5225419;28;20665;-59
2021/10/25 08:10:12;;;;;;;15.10;13.60;;;7.00;99.90;;;7.97;73.12;98478.25;5223878;28;20207;-59
2021/10/25 08:12:49;;;;;;;15.87;14.23;;;7.20;99.90;;;7.93;72.75;98491.50;5222133;28;20240;-59
2021/10/25 08:15:26;;;;;;;15.10;13.50;;;7.20;99.90;;;8.19;73.47;98495.19;5224023;28;20292;-59
2021/10/25 08:18:00;;;;;;;16.47;14.80;;;7.40;99.90;;;8.41;72.62;98490.94;5221401;28;20292;-57
2021/10/25 08:20:33;;;;;;;13.33;11.87;;;7.70;99.90;;;8.51;72.77;98479.81;5223738;28;20192;-58
2021/10/25 08:23:06;;;;;;;16.43;14.77;;;7.80;99.90;;;8.59;73.18;98476.19;5222845;28;20240;-59
2021/10/25 08:25:41;;;;;;;16.90;15.30;;;7.90;99.90;;;8.72;74.50;98476.28;5215807;28;20315;-58
2021/10/25 08:28:15;;;;;;;15.23;13.63;;;8.10;99.90;;;8.89;75.34;98474.13;5221439;28;20205;-60
2021/10/25 08:30:51;;;;;;;15.90;14.30;;;8.30;99.90;;;9.17;73.42;98466.81;5223124;22;20677;-61
2021/10/25 08:33:43;;;;;;;14.93;13.53;;;8.60;99.90;;;9.28;72.96;98478.69;5180549;28;20208;-64
2021/10/25 08:36:20;;;;;;;16.60;14.90;;;8.70;99.90;;;9.32;72.56;98478.09;5184872;28;20388;-64
2021/10/25 08:41:45;;;;;;;16.43;14.73;;;8.80;99.90;;;9.43;72.66;98467.00;5179576;28;20305;-65
2021/10/25 08:44:18;;;;;;;17.47;15.63;;;8.70;99.90;;;9.53;72.25;98462.53;5189073;28;20203;-63
2021/10/25 08:46:54;;;;;;;18.90;15.13;;;8.70;99.90;;;9.58;72.63;98463.75;5188102;28;20217;-62
2021/10/25 08:49:29;;;;;;;16.93;14.10;;;8.80;99.90;;;9.82;72.23;98452.72;5180319;28;20266;-65
2021/10/25 08:52:02;;;;;;;15.53;13.97;;;9.10;99.90;;;10.00;70.75;98458.22;5178652;28;20226;-64
2021/10/25 08:54:35;;;;;;;16.13;14.43;;;9.30;99.90;;;10.24;70.67;98461.53;5184752;28;20209;-65
2021/10/25 08:57:09;;;;;;;15.17;13.60;;;9.40;99.90;;;10.11;70.81;98462.38;5188838;28;20297;-63
2021/10/25 08:59:43;;;;;;;18.40;15.20;;;9.40;99.90;;;10.26;70.53;98452.31;5178314;28;20244;-64
2021/10/25 09:02:16;;;;;;;15.67;14.13;;;9.40;99.90;;;10.42;69.62;98454.28;5177172;28;20225;-65
2021/10/25 09:05:01;;;;;;;16.80;15.10;;;9.70;99.90;;;10.45;70.45;98448.50;5178316;28;20207;-64
2021/10/25 09:07:49;;;;;;;15.03;13.53;;;9.70;99.90;;;10.48;70.96;98447.03;5174146;28;20222;-64
2021/10/25 09:10:25;;;;;;;16.43;14.73;;;9.70;99.90;;;10.64;70.04;98441.25;5181540;28;20646;-64
2021/10/25 09:13:03;;;;;;;15.70;14.20;;;9.80;99.90;;;10.53;70.63;98431.97;5177695;28;20285;-64
2021/10/25 09:15:38;;;;;;;14.55;13.05;;;9.80;99.90;;;10.41;69.96;98436.28;5176212;28;20201;-62
2021/10/25 09:18:14;;;;;;;14.98;13.48;;;9.60;99.90;;;10.56;70.42;98432.22;5169573;28;20221;-64
2021/10/25 09:20:53;;;;;;;14.15;12.75;;;9.70;99.90;;;10.64;70.76;98431.03;5172156;28;20251;-64
2021/10/25 09:23:29;;;;;;;15.07;13.57;;;9.80;99.90;;;10.93;69.89;98435.50;5175440;28;20686;-62
2021/10/25 09:26:06;;;;;;;15.45;13.95;;;10.10;99.90;;;10.87;69.83;98429.97;5170059;28;20236;-63
2021/10/25 09:28:45;;;;;;;14.38;13.02;;;10.10;99.90;;;11.00;70.20;98422.31;5174024;28;20199;-64
2021/10/25 09:31:24;;;;;;;14.48;13.10;;;10.20;99.90;;;11.06;70.31;98426.94;5175071;28;20226;-64
2021/10/25 09:34:03;;;;;;;14.35;12.95;;;10.20;99.90;;;11.24;69.69;98430.66;5182776;28;20698;-63
2021/10/25 09:36:40;;;;;;;14.43;13.02;;;10.30;99.90;;;11.18;69.25;98432.84;5173583;28;20205;-64
2021/10/25 09:39:20;;;;;;;15.48;13.95;;;10.30;99.90;;;11.17;69.54;98437.88;5177758;28;20531;-64
2021/10/25 09:41:59;;;;;;;14.75;13.27;;;10.30;99.90;;;11.18;69.65;98427.72;5177630;28;20230;-63
2021/10/25 09:50:19;;;;;;;14.73;13.27;;;10.50;99.90;;;11.25;69.93;98424.78;5174365;28;20225;-61
2021/10/25 09:52:52;;;;;;;17.45;12.95;;;10.50;99.90;;;11.38;69.39;98410.19;5173015;28;20304;-63
2021/10/25 09:55:25;;;;;;;13.13;11.77;;;10.50;99.90;;;11.63;69.11;98402.34;5171990;28;20198;-61
2021/10/25 09:58:10;;;;;;;13.63;12.35;;;10.70;99.90;;;11.84;68.34;98402.78;5174741;28;20198;-61
2021/10/25 10:00:45;;;;;;;13.43;12.18;;;10.90;99.90;;;11.94;68.03;98402.59;5172192;28;20313;-65
2021/10/25 10:03:19;;;;;;;14.68;13.18;;;11.10;99.90;;;12.15;67.46;98411.53;5186810;28;20329;-64
2021/10/25 10:05:55;;;;;;;13.73;12.32;;;11.20;99.90;;;12.30;66.87;98406.44;5171122;28;20666;-62
2021/10/25 10:08:28;;;;;;;12.20;11.13;;;11.40;99.90;;;12.23;67.14;98413.69;5172687;28;20226;-64
2021/10/25 10:11:02;;;;;;;13.45;12.05;;;11.40;99.90;;;12.44;66.61;98412.38;5173905;28;20559;-64
2021/10/25 10:13:36;;;;;;;13.50;12.10;;;11.60;99.90;;;12.74;65.34;98400.47;5176397;28;20281;-63
2021/10/25 10:16:11;;;;;;;12.75;11.40;;;11.80;99.90;;;12.61;65.73;98398.84;5175831;28;20197;-64
2021/10/25 10:18:51;;;;;;;12.60;11.32;;;11.70;99.90;;;12.83;64.94;98395.84;5178612;28;20213;-65
2021/10/25 10:21:26;;;;;;;13.25;11.90;;;12.00;99.90;;;12.73;66.08;98392.66;5181011;28;20228;-64
2021/10/25 10:24:04;;;;;;;12.75;11.43;;;11.90;99.90;;;12.85;65.31;98396.84;5180969;28;20233;-65
2021/10/25 10:26:38;;;;;;;12.32;11.23;;;12.00;99.90;;;12.94;65.05;98391.34;5182958;28;20812;-63
2021/10/25 10:29:14;;;;;;;11.07;10.10;;;12.10;99.90;;;13.05;65.60;98394.50;5178836;28;20260;-64
2021/10/25 10:32:00;;;;;;;11.63;10.60;;;12.20;99.90;;;13.27;64.79;98388.88;5190178;28;20237;-63
2021/10/25 10:34:40;;;;;;;11.98;10.85;;;12.40;99.90;;;13.49;64.72;98391.84;5182338;28;20285;-62
2021/10/25 10:37:22;;;;;;;13.32;12.02;;;12.60;99.90;;;13.45;64.59;98384.78;5171274;28;20198;-64
2021/10/25 10:40:05;;;;;;;12.32;11.18;;;12.60;99.90;;;13.54;63.96;98386.06;5180184;28;20194;-63
2021/10/25 10:42:43;;;;;;;11.35;10.25;;;12.70;99.90;;;13.66;65.04;98373.88;5174952;28;20286;-62
2021/10/25 10:45:18;;;;;;;11.10;10.15;;;12.90;99.90;;;13.81;65.06;98378.94;5172881;28;20202;-62
2021/10/25 10:48:00;;;;;;;12.00;10.90;;;13.10;99.90;;;14.02;64.42;98367.22;5176553;28;20578;-63
2021/10/25 10:50:42;;;;;;;10.18;9.20;;;13.30;99.90;;;14.15;64.07;98366.16;5173451;28;20225;-64
2021/10/25 10:53:22;;;;;;;8.80;8.10;;;13.50;99.90;;;14.26;61.99;98367.59;5171996;28;20198;-61
2021/10/25 10:56:00;;;;;;;8.88;8.05;;;13.50;99.90;;;14.36;61.02;98369.78;5174645;28;20215;-63
2021/10/25 10:58:46;;;;;;;8.77;7.88;;;13.60;99.90;;;14.58;60.13;98368.34;5172397;28;20212;-62
2021/10/25 11:01:19;;;;;;;7.93;7.13;;;13.80;99.90;;;14.87;58.04;98369.75;5176809;28;20383;-65
2021/10/25 11:04:03;;;;;;;8.93;8.13;;;14.00;99.90;;;14.89;58.23;98375.88;5183974;28;20308;-64
2021/10/25 11:06:37;;;;;;;8.77;7.97;;;14.20;99.90;;;14.84;59.38;98361.91;5177761;28;20757;-64
2021/10/25 11:09:12;;;;;;;7.10;6.50;;;14.10;99.90;;;14.89;58.64;98354.41;5183180;28;20249;-64
2021/10/25 11:11:47;;;;;;;6.90;6.28;;;14.10;99.90;;;14.95;58.86;98347.84;5184783;28;20281;-64
2021/10/25 11:14:28;;;;;;;7.25;6.65;;;14.30;99.90;;;15.06;58.47;98335.50;5183665;28;20654;-62
2021/10/25 11:17:20;;;;;;;6.40;5.80;;;14.30;99.90;;;15.39;55.86;98333.59;5179581;28;20207;-64
2021/10/25 11:19:55;;;;;;;6.75;6.15;;;14.60;99.90;;;15.49;55.14;98333.19;5178881;28;20211;-63
2021/10/25 11:22:31;;;;;;;7.10;6.45;;;14.70;99.90;;;15.47;55.96;98327.09;5180176;28;20698;-65
2021/10/25 11:25:09;;;;;;;7.20;6.60;;;14.70;99.90;;;15.51;55.67;98336.75;5181739;28;20237;-64
2021/10/25 11:27:43;;;;;;;7.07;6.47;;;14.70;99.90;;;15.57;55.54;98333.56;5182350;28;20580;-63
2021/10/25 11:30:18;;;;;;;7.45;6.75;;;14.80;99.90;;;15.81;54.03;98327.75;5178005;28;20316;-60
2021/10/25 11:32:52;;;;;;;6.97;6.38;;;14.90;99.90;;;15.64;53.47;98333.00;5169592;28;20323;-64
2021/10/25 11:35:27;;;;;;;6.78;5.78;;;14.90;99.60;;;15.68;53.39;98322.06;5173939;28;20567;-63
2021/10/25 11:38:03;;;;;;;5.85;5.40;;;14.90;99.30;;;15.63;53.85;98323.53;5176452;28;20476;-64
2021/10/25 11:40:36;;;;;;;5.95;5.45;;;14.90;99.60;;;15.60;53.90;98318.22;5177902;28;20226;-62
2021/10/25 11:43:09;;;;;;;5.35;4.90;;;14.80;99.40;;;15.63;53.71;98318.38;5172236;28;20659;-64
2021/10/25 11:45:43;;;;;;;4.40;4.10;;;14.90;99.00;;;15.60;53.90;98299.31;5174066;28;20204;-61
2021/10/25 11:48:16;;;;;;;5.47;4.78;;;14.80;99.40;;;15.57;54.72;98312.03;5171521;28;20211;-64
2021/10/25 11:50:51;;;;;;;4.68;4.28;;;14.80;99.90;;;15.59;55.33;98313.88;5171090;28;20226;-63
2021/10/25 11:53:29;;;;;;;5.20;4.72;;;14.80;99.90;;;15.67;54.40;98302.22;5172295;28;20722;-63
2021/10/25 11:56:02;;;;;;;4.63;4.22;;;14.90;99.70;;;15.72;54.48;98303.34;5174361;28;20202;-61
2021/10/25 11:58:36;;;;;;;4.03;3.72;;;14.90;99.70;;;15.76;54.65;98300.06;5171779;28;20293;-64
2021/10/25 12:01:14;;;;;;;4.30;4.00;;;15.00;99.50;;;15.79;54.67;98298.44;5173295;28;20228;-64
2021/10/25 12:03:47;;;;;;;4.60;4.20;;;14.90;99.90;;;15.86;54.75;98301.38;5172807;28;20809;-64